Time,TemperatureF,DewpointF,PressureIn,WindDirection,WindDirectionDegrees,WindSpeedMPH,WindSpeedGustMPH,Humidity,HourlyPrecipIn,Conditions,Clouds,dailyrainin,SoftwareType,DateUTC
2013-04-15 00:00:00,59.8,51.5,29.80,SSE,164,6.3,6.3,74,0.00,,---,0.00,VWS V14.00,2013-04-15 04:00:00,
2013-04-15 00:01:00,59.6,51.3,29.80,SE,140,2.7,6.3,74,0.00,,---,0.00,VWS V14.00,2013-04-15 04:01:00,
2013-04-15 00:07:00,59.3,51.3,29.80,SE,128,2.2,6.3,75,0.00,,---,0.00,VWS V14.00,2013-04-15 04:07:00,
2013-04-15 00:12:00,58.9,51.7,29.80,SE,138,3.1,4.0,77,0.00,,---,0.00,VWS V14.00,2013-04-15 04:12:00,
2013-04-15 00:17:00,58.5,51.7,29.80,SE,140,3.1,5.8,78,0.00,,---,0.00,VWS V14.00,2013-04-15 04:17:00,
2013-04-15 00:22:00,58.2,51.4,29.80,ESE,119,0.0,2.7,78,0.00,,---,0.00,VWS V14.00,2013-04-15 04:22:00,
2013-04-15 00:27:00,58.0,51.9,29.80,SSE,153,4.0,5.8,80,0.00,,---,0.00,VWS V14.00,2013-04-15 04:27:00,
2013-04-15 00:32:00,57.8,52.0,29.80,SE,143,2.7,3.6,81,0.00,,---,0.00,VWS V14.00,2013-04-15 04:32:00,
2013-04-15 00:38:00,57.6,52.2,29.80,ESE,119,3.1,5.4,82,0.00,,---,0.00,VWS V14.00,2013-04-15 04:38:00,
2013-04-15 00:43:00,57.5,52.3,29.80,SE,126,2.2,3.1,83,0.00,,---,0.00,VWS V14.00,2013-04-15 04:43:00,
2013-04-15 00:48:00,57.8,53.3,29.80,East,84,0.0,3.1,85,0.00,,---,0.00,VWS V14.00,2013-04-15 04:48:00,
2013-04-15 00:53:00,58.0,53.5,29.80,ESE,103,0.0,0.0,85,0.00,,---,0.00,VWS V14.00,2013-04-15 04:53:00,
2013-04-15 00:58:00,57.8,53.0,29.80,SE,140,0.0,0.0,84,0.00,,---,0.00,VWS V14.00,2013-04-15 04:58:00,
2013-04-15 01:04:00,57.5,52.7,29.80,SE,139,0.0,3.6,84,0.00,,---,0.00,VWS V14.00,2013-04-15 05:04:00,
2013-04-15 01:09:00,57.3,52.5,29.80,SE,141,0.0,4.0,84,0.00,,---,0.00,VWS V14.00,2013-04-15 05:09:00,
2013-04-15 01:14:00,57.3,52.5,29.80,SE,140,3.1,4.0,84,0.00,,---,0.00,VWS V14.00,2013-04-15 05:14:00,
2013-04-15 01:19:00,57.8,54.0,29.80,SE,140,2.7,5.8,87,0.00,,---,0.00,VWS V14.00,2013-04-15 05:19:00,
2013-04-15 01:25:00,58.0,53.8,29.80,ESE,112,2.7,4.0,86,0.00,,---,0.00,VWS V14.00,2013-04-15 05:25:00,
2013-04-15 01:30:00,57.8,53.0,29.80,SSE,147,3.1,4.0,84,0.00,,---,0.00,VWS V14.00,2013-04-15 05:30:00,
2013-04-15 01:35:00,57.5,52.3,29.80,ESE,121,2.7,5.4,83,0.00,,---,0.00,VWS V14.00,2013-04-15 05:35:00,
2013-04-15 01:40:00,57.1,52.3,29.80,SSE,161,2.7,3.1,84,0.00,,---,0.00,VWS V14.00,2013-04-15 05:40:00,
2013-04-15 01:45:00,56.9,52.1,29.80,SE,129,0.0,4.0,84,0.00,,---,0.00,VWS V14.00,2013-04-15 05:45:00,
2013-04-15 01:50:00,56.6,52.4,29.80,ESE,112,0.0,0.0,86,0.00,,---,0.00,VWS V14.00,2013-04-15 05:50:00,
2013-04-15 01:56:00,56.4,52.6,29.80,SE,134,0.0,2.2,87,0.00,,---,0.00,VWS V14.00,2013-04-15 05:56:00,
2013-04-15 02:02:00,56.2,52.4,29.80,East,97,0.0,3.1,87,0.00,,---,0.00,VWS V14.00,2013-04-15 06:02:00,
2013-04-15 02:07:00,56.4,53.2,29.80,SSE,162,0.0,3.1,89,0.00,,---,0.00,VWS V14.00,2013-04-15 06:07:00,
2013-04-15 02:12:00,56.2,53.3,29.80,SSE,151,0.0,2.7,90,0.00,,---,0.00,VWS V14.00,2013-04-15 06:12:00,
2013-04-15 02:17:00,56.0,53.1,29.80,ENE,69,0.0,2.7,90,0.00,,---,0.00,VWS V14.00,2013-04-15 06:17:00,
2013-04-15 02:23:00,56.2,53.9,29.80,ESE,112,0.0,0.0,92,0.00,,---,0.00,VWS V14.00,2013-04-15 06:23:00,
2013-04-15 02:28:00,56.0,53.7,29.80,SE,146,0.0,0.0,92,0.00,,---,0.00,VWS V14.00,2013-04-15 06:28:00,
2013-04-15 02:33:00,55.7,53.4,29.80,SE,146,0.0,3.1,92,0.00,,---,0.00,VWS V14.00,2013-04-15 06:33:00,
2013-04-15 02:38:00,55.5,53.2,29.80,SE,143,0.0,3.1,92,0.00,,---,0.00,VWS V14.00,2013-04-15 06:38:00,
2013-04-15 02:43:00,55.5,53.5,29.80,SSE,149,0.0,0.0,93,0.00,,---,0.00,VWS V14.00,2013-04-15 06:43:00,
2013-04-15 02:48:00,55.7,53.7,29.80,SE,142,0.0,2.7,93,0.00,,---,0.00,VWS V14.00,2013-04-15 06:48:00,
2013-04-15 02:54:00,56.0,54.3,29.80,ESE,114,0.0,0.0,94,0.00,,---,0.00,VWS V14.00,2013-04-15 06:54:00,
2013-04-15 02:59:00,56.2,54.5,29.80,ESE,113,0.0,2.2,94,0.00,,---,0.00,VWS V14.00,2013-04-15 06:59:00,
2013-04-15 03:04:00,56.7,55.3,29.80,ESE,106,0.0,0.0,95,0.00,,---,0.00,VWS V14.00,2013-04-15 07:04:00,
2013-04-15 03:41:00,58.0,54.2,29.80,NE,47,0.0,0.0,87,0.00,,---,0.00,VWS V14.00,2013-04-15 07:41:00,
2013-04-15 03:42:00,58.0,54.2,29.80,NE,47,0.0,0.0,87,0.00,,---,0.00,VWS V14.00,2013-04-15 07:42:00,
2013-04-15 03:44:00,58.0,54.2,29.80,NE,47,0.0,0.0,87,0.00,,---,0.00,VWS V14.00,2013-04-15 07:44:00,
2013-04-15 03:48:00,58.2,54.0,29.80,NE,49,0.0,0.0,86,0.00,,---,0.00,VWS V14.00,2013-04-15 07:48:00,
2013-04-15 03:50:00,58.2,54.0,29.80,NE,49,0.0,0.0,86,0.00,,---,0.00,VWS V14.00,2013-04-15 07:50:00,
2013-04-15 03:54:00,58.2,54.0,29.80,SSE,155,0.0,0.0,86,0.00,,---,0.00,VWS V14.00,2013-04-15 07:54:00,
2013-04-15 03:59:00,58.4,53.9,29.80,ENE,78,0.0,0.0,85,0.00,,---,0.00,VWS V14.00,2013-04-15 07:59:00,
2013-04-15 04:04:00,58.4,53.9,29.80,ENE,78,0.0,0.0,85,0.00,,---,0.00,VWS V14.00,2013-04-15 08:04:00,
2013-04-15 04:09:00,58.4,53.5,29.80,ENE,78,0.0,0.0,84,0.00,,---,0.00,VWS V14.00,2013-04-15 08:09:00,
2013-04-15 04:14:00,58.5,53.7,29.80,ENE,78,0.0,0.0,84,0.00,,---,0.00,VWS V14.00,2013-04-15 08:14:00,
2013-04-15 04:20:00,58.5,53.7,29.80,NNE,33,0.0,3.6,84,0.00,,---,0.00,VWS V14.00,2013-04-15 08:20:00,
2013-04-15 04:25:00,58.5,53.4,29.80,NE,47,0.0,3.6,83,0.00,,---,0.00,VWS V14.00,2013-04-15 08:25:00,
2013-04-15 04:30:00,58.7,53.6,29.80,East,86,0.0,3.6,83,0.00,,---,0.00,VWS V14.00,2013-04-15 08:30:00,
2013-04-15 04:35:00,58.7,53.6,29.80,ENE,78,0.0,3.6,83,0.00,,---,0.00,VWS V14.00,2013-04-15 08:35:00,
2013-04-15 04:36:00,58.7,53.6,29.80,ENE,78,0.0,3.6,83,0.00,,---,0.00,VWS V14.00,2013-04-15 08:36:00,
2013-04-15 04:40:00,58.7,53.6,29.80,East,81,0.0,4.0,83,0.00,,---,0.00,VWS V14.00,2013-04-15 08:40:00,
2013-04-15 04:42:00,58.7,53.6,29.83,East,87,0.0,3.6,83,0.00,,---,0.00,VWS V14.00,2013-04-15 08:42:00,
2013-04-15 04:47:00,58.7,53.9,29.83,East,83,2.7,4.0,84,0.00,,---,0.00,VWS V14.00,2013-04-15 08:47:00,
2013-04-15 04:52:00,58.7,53.9,29.83,ENE,68,2.7,3.6,84,0.00,,---,0.00,VWS V14.00,2013-04-15 08:52:00,
2013-04-15 04:54:00,58.7,53.9,29.83,East,84,2.7,3.6,84,0.00,,---,0.00,VWS V14.00,2013-04-15 08:54:00,
2013-04-15 04:59:00,58.9,54.1,29.83,ENE,74,2.7,3.6,84,0.00,,---,0.00,VWS V14.00,2013-04-15 08:59:00,
2013-04-15 05:04:00,58.9,53.8,29.83,NE,49,3.6,3.6,83,0.00,,---,0.00,VWS V14.00,2013-04-15 09:04:00,
2013-04-15 05:09:00,58.7,53.6,29.83,ESE,103,3.6,4.9,83,0.00,,---,0.00,VWS V14.00,2013-04-15 09:09:00,
2013-04-15 05:15:00,58.7,53.9,29.83,ENE,76,4.9,5.4,84,0.00,,---,0.00,VWS V14.00,2013-04-15 09:15:00,
2013-04-15 05:20:00,58.7,53.9,29.83,East,83,2.7,2.7,84,0.00,,---,0.00,VWS V14.00,2013-04-15 09:20:00,
2013-04-15 05:25:00,58.7,54.2,29.83,East,99,0.0,4.9,85,0.00,,---,0.00,VWS V14.00,2013-04-15 09:25:00,
2013-04-15 05:30:00,58.7,54.2,29.83,East,91,0.0,0.0,85,0.00,,---,0.00,VWS V14.00,2013-04-15 09:30:00,
2013-04-15 05:36:00,58.7,54.2,29.83,East,81,4.0,4.0,85,0.00,,---,0.00,VWS V14.00,2013-04-15 09:36:00,
2013-04-15 05:41:00,58.7,54.2,29.83,ENE,60,0.0,2.2,85,0.00,,---,0.00,VWS V14.00,2013-04-15 09:41:00,
2013-04-15 05:46:00,58.7,54.2,29.83,ESE,106,2.7,3.1,85,0.00,,---,0.00,VWS V14.00,2013-04-15 09:46:00,
2013-04-15 05:52:00,58.7,54.2,29.83,SE,142,2.2,5.8,85,0.00,,---,0.00,VWS V14.00,2013-04-15 09:52:00,
2013-04-15 05:57:00,58.7,54.2,29.83,ESE,102,4.0,5.8,85,0.00,,---,0.00,VWS V14.00,2013-04-15 09:57:00,
2013-04-15 06:02:00,58.7,54.2,29.83,East,86,0.0,4.5,85,0.00,,---,0.00,VWS V14.00,2013-04-15 10:02:00,
2013-04-15 06:07:00,58.5,54.0,29.83,SE,136,0.0,6.3,85,0.00,,---,0.00,VWS V14.00,2013-04-15 10:07:00,
2013-04-15 06:12:00,58.5,54.0,29.83,East,101,0.0,3.1,85,0.00,,---,0.00,VWS V14.00,2013-04-15 10:12:00,
2013-04-15 06:17:00,58.5,54.0,29.83,NNE,24,0.0,5.4,85,0.00,,---,0.00,VWS V14.00,2013-04-15 10:17:00,
2013-04-15 06:22:00,58.5,54.0,29.83,ESE,115,2.2,4.0,85,0.00,,---,0.00,VWS V14.00,2013-04-15 10:22:00,
2013-04-15 06:28:00,58.5,54.0,29.83,SE,133,2.2,4.0,85,0.00,,---,0.00,VWS V14.00,2013-04-15 10:28:00,
2013-04-15 06:33:00,58.5,54.0,29.83,SE,145,0.0,4.0,85,0.00,,---,0.00,VWS V14.00,2013-04-15 10:33:00,
2013-04-15 06:38:00,58.5,54.0,29.83,SE,124,0.0,5.4,85,0.00,,---,0.00,VWS V14.00,2013-04-15 10:38:00,
2013-04-15 06:44:00,58.5,54.0,29.83,ENE,75,2.2,7.6,85,0.00,,---,0.00,VWS V14.00,2013-04-15 10:44:00,
2013-04-15 06:49:00,58.5,54.0,29.83,East,98,0.0,7.6,85,0.00,,---,0.00,VWS V14.00,2013-04-15 10:49:00,
2013-04-15 06:54:00,58.5,54.0,29.83,SSE,159,2.7,5.8,85,0.00,,---,0.00,VWS V14.00,2013-04-15 10:54:00,
2013-04-15 06:59:00,58.5,54.0,29.83,SSE,160,0.0,5.8,85,0.00,,---,0.00,VWS V14.00,2013-04-15 10:59:00,
2013-04-15 07:05:00,58.5,54.4,29.83,ENE,77,0.0,4.0,86,0.00,,---,0.00,VWS V14.00,2013-04-15 11:05:00,
2013-04-15 07:10:00,58.5,54.4,29.83,SE,137,0.0,4.0,86,0.00,,---,0.00,VWS V14.00,2013-04-15 11:10:00,
2013-04-15 07:15:00,58.5,54.4,29.83,SE,145,0.0,5.8,86,0.00,,---,0.00,VWS V14.00,2013-04-15 11:15:00,
2013-04-15 07:20:00,58.5,54.4,29.83,East,86,2.2,3.1,86,0.00,,---,0.00,VWS V14.00,2013-04-15 11:20:00,
2013-04-15 07:25:00,58.7,54.9,29.86,SSE,147,0.0,4.9,87,0.00,,---,0.00,VWS V14.00,2013-04-15 11:25:00,
2013-04-15 07:31:00,58.7,54.9,29.86,ESE,123,2.7,3.6,87,0.00,,---,0.00,VWS V14.00,2013-04-15 11:31:00,
2013-04-15 07:37:00,58.7,54.9,29.86,East,98,3.1,3.6,87,0.00,,---,0.00,VWS V14.00,2013-04-15 11:37:00,
2013-04-15 07:42:00,58.7,54.9,29.86,SSE,149,2.7,2.7,87,0.00,,---,0.00,VWS V14.00,2013-04-15 11:42:00,
2013-04-15 07:48:00,58.7,54.9,29.86,SE,136,0.0,5.4,87,0.00,,---,0.00,VWS V14.00,2013-04-15 11:48:00,
2013-04-15 07:53:00,58.7,54.9,29.86,ESE,117,2.7,4.0,87,0.00,,---,0.00,VWS V14.00,2013-04-15 11:53:00,
2013-04-15 07:59:00,58.9,55.0,29.86,SE,140,4.9,4.9,87,0.00,,---,0.00,VWS V14.00,2013-04-15 11:59:00,
2013-04-15 08:05:00,58.9,55.0,29.86,SE,138,3.1,5.8,87,0.00,,---,0.00,VWS V14.00,2013-04-15 12:05:00,
2013-04-15 08:10:00,59.1,54.9,29.86,SSE,153,2.7,5.8,86,0.00,,---,0.00,VWS V14.00,2013-04-15 12:10:00,
2013-04-15 08:15:00,59.1,54.9,29.89,SE,128,0.0,4.9,86,0.00,,---,0.00,VWS V14.00,2013-04-15 12:15:00,
2013-04-15 08:20:00,59.1,54.9,29.89,SSE,151,0.0,5.8,86,0.00,,---,0.00,VWS V14.00,2013-04-15 12:20:00,
2013-04-15 08:25:00,59.3,55.1,29.89,SE,142,0.0,5.8,86,0.00,,---,0.00,VWS V14.00,2013-04-15 12:25:00,
2013-04-15 08:31:00,59.4,54.6,29.89,SSE,151,0.0,3.6,84,0.00,,---,0.00,VWS V14.00,2013-04-15 12:31:00,
2013-04-15 08:37:00,59.4,54.6,29.89,SSE,152,3.6,5.4,84,0.00,,---,0.00,VWS V14.00,2013-04-15 12:37:00,
2013-04-15 08:42:00,59.4,54.6,29.89,ESE,118,2.2,5.4,84,0.00,,---,0.00,VWS V14.00,2013-04-15 12:42:00,
2013-04-15 08:48:00,59.6,54.8,29.89,SE,140,3.1,6.3,84,0.00,,---,0.00,VWS V14.00,2013-04-15 12:48:00,
2013-04-15 08:53:00,59.6,54.5,29.89,SE,124,4.0,5.8,83,0.00,,---,0.00,VWS V14.00,2013-04-15 12:53:00,
2013-04-15 08:58:00,60.0,54.8,29.89,SE,137,4.0,5.8,83,0.00,,---,0.00,VWS V14.00,2013-04-15 12:58:00,
2013-04-15 09:03:00,60.2,55.0,29.89,South,169,4.9,4.9,83,0.00,,---,0.00,VWS V14.00,2013-04-15 13:03:00,
2013-04-15 09:09:00,60.3,54.8,29.89,SE,138,2.7,4.9,82,0.00,,---,0.00,VWS V14.00,2013-04-15 13:09:00,
2013-04-15 09:14:00,60.5,55.0,29.89,SE,125,5.8,5.8,82,0.00,,---,0.00,VWS V14.00,2013-04-15 13:14:00,
2013-04-15 09:19:00,60.5,54.7,29.89,SSE,147,3.6,5.8,81,0.00,,---,0.00,VWS V14.00,2013-04-15 13:19:00,
2013-04-15 09:25:00,60.9,55.0,29.89,SSW,192,3.1,5.8,81,0.00,,---,0.00,VWS V14.00,2013-04-15 13:25:00,
2013-04-15 09:30:00,61.1,55.2,29.89,ESE,123,3.1,5.8,81,0.00,,---,0.00,VWS V14.00,2013-04-15 13:30:00,
2013-04-15 09:35:00,61.4,55.2,29.89,SE,129,3.1,4.9,80,0.00,,---,0.00,VWS V14.00,2013-04-15 13:35:00,
2013-04-15 09:40:00,61.6,54.7,29.89,SSE,150,2.2,2.7,78,0.00,,---,0.00,VWS V14.00,2013-04-15 13:40:00,
2013-04-15 09:46:00,62.0,55.0,29.89,SE,126,3.1,6.3,78,0.00,,---,0.00,VWS V14.00,2013-04-15 13:46:00,
2013-04-15 09:52:00,62.0,54.7,29.89,SE,134,3.6,5.4,77,0.00,,---,0.00,VWS V14.00,2013-04-15 13:52:00,
2013-04-15 09:57:00,62.1,54.8,29.89,SSE,149,3.6,8.7,77,0.00,,---,0.00,VWS V14.00,2013-04-15 13:57:00,
2013-04-15 10:03:00,62.3,55.0,29.89,SSE,151,3.1,4.0,77,0.00,,---,0.00,VWS V14.00,2013-04-15 14:03:00,
2013-04-15 10:08:00,62.3,55.4,29.89,SSW,209,3.1,5.8,78,0.00,,---,0.00,VWS V14.00,2013-04-15 14:08:00,
2013-04-15 10:14:00,62.3,55.7,29.89,SE,134,3.1,5.8,79,0.00,,---,0.00,VWS V14.00,2013-04-15 14:14:00,
2013-04-15 10:19:00,62.3,55.7,29.89,SSE,158,5.8,5.8,79,0.00,,---,0.00,VWS V14.00,2013-04-15 14:19:00,
2013-04-15 10:24:00,62.1,55.9,29.89,SE,134,8.1,8.3,80,0.00,,---,0.00,VWS V14.00,2013-04-15 14:24:00,
2013-04-15 10:30:00,62.3,56.4,29.89,SSE,152,4.0,8.3,81,0.00,,---,0.00,VWS V14.00,2013-04-15 14:30:00,
2013-04-15 10:35:00,62.5,56.6,29.89,SSE,152,4.9,8.1,81,0.00,,---,0.00,VWS V14.00,2013-04-15 14:35:00,
2013-04-15 10:40:00,62.9,57.0,29.89,SSE,153,4.0,4.0,81,0.00,,---,0.00,VWS V14.00,2013-04-15 14:40:00,
2013-04-15 10:45:00,63.6,57.3,29.89,SE,143,2.2,4.9,80,0.00,,---,0.00,VWS V14.00,2013-04-15 14:45:00,
2013-04-15 10:51:00,64.1,57.1,29.89,SE,144,2.2,7.6,78,0.00,,---,0.00,VWS V14.00,2013-04-15 14:51:00,
2013-04-15 10:57:00,64.5,57.1,29.89,SSW,212,6.3,7.6,77,0.00,,---,0.00,VWS V14.00,2013-04-15 14:57:00,
2013-04-15 11:02:00,64.5,56.4,29.89,SE,136,0.0,0.0,75,0.00,,---,0.00,VWS V14.00,2013-04-15 15:02:00,
2013-04-15 11:07:00,64.8,56.7,29.89,SSE,168,2.2,5.8,75,0.00,,---,0.00,VWS V14.00,2013-04-15 15:07:00,
2013-04-15 11:12:00,65.2,56.0,29.89,SSE,151,0.0,5.4,72,0.00,,---,0.00,VWS V14.00,2013-04-15 15:12:00,
2013-04-15 11:18:00,65.2,55.6,29.89,SE,134,0.0,6.3,71,0.00,,---,0.00,VWS V14.00,2013-04-15 15:18:00,
2013-04-15 11:23:00,65.7,56.1,29.89,SSE,147,4.0,5.8,71,0.00,,---,0.00,VWS V14.00,2013-04-15 15:23:00,
2013-04-15 11:29:00,66.1,55.7,29.89,South,186,5.4,8.7,69,0.00,,---,0.00,VWS V14.00,2013-04-15 15:29:00,
2013-04-15 11:34:00,66.5,55.2,29.89,South,190,7.6,7.6,67,0.00,,---,0.00,VWS V14.00,2013-04-15 15:34:00,
2013-04-15 11:39:00,67.0,54.4,29.89,SSE,156,5.4,8.3,64,0.00,,---,0.00,VWS V14.00,2013-04-15 15:39:00,
2013-04-15 11:45:00,67.2,53.7,29.89,SSW,199,7.6,8.7,62,0.00,,---,0.00,VWS V14.00,2013-04-15 15:45:00,
2013-04-15 11:50:00,66.8,53.8,29.89,SSW,194,3.6,11.0,63,0.00,,---,0.00,VWS V14.00,2013-04-15 15:50:00,
2013-04-15 11:55:00,66.6,54.1,29.89,SSW,205,4.5,11.0,64,0.00,,---,0.00,VWS V14.00,2013-04-15 15:55:00,
2013-04-15 12:00:00,66.8,54.3,29.92,SSW,195,6.3,11.0,64,0.00,,---,0.00,VWS V14.00,2013-04-15 16:00:00,
2013-04-15 12:05:00,67.5,55.0,29.92,South,181,3.1,6.3,64,0.00,,---,0.00,VWS V14.00,2013-04-15 16:05:00,
2013-04-15 12:11:00,68.4,52.2,29.89,South,179,8.1,11.0,56,0.00,,---,0.00,VWS V14.00,2013-04-15 16:11:00,
2013-04-15 12:17:00,68.8,51.5,29.89,SSW,200,8.3,11.0,54,0.00,,---,0.00,VWS V14.00,2013-04-15 16:17:00,
2013-04-15 12:22:00,69.0,50.6,29.89,SSW,193,4.5,9.6,52,0.00,,---,0.00,VWS V14.00,2013-04-15 16:22:00,
2013-04-15 12:27:00,69.5,51.1,29.92,South,189,8.7,9.6,52,0.00,,---,0.00,VWS V14.00,2013-04-15 16:27:00,
2013-04-15 12:32:00,69.7,50.2,29.92,South,171,10.1,11.4,50,0.00,,---,0.00,VWS V14.00,2013-04-15 16:32:00,
2013-04-15 12:37:00,70.1,50.0,29.92,SSW,207,7.6,11.4,49,0.00,,---,0.00,VWS V14.00,2013-04-15 16:37:00,
2013-04-15 12:43:00,70.6,49.4,29.92,SSW,203,10.5,13.2,47,0.00,,---,0.00,VWS V14.00,2013-04-15 16:43:00,
2013-04-15 12:48:00,71.0,49.2,29.92,SSW,213,8.1,13.2,46,0.00,,---,0.00,VWS V14.00,2013-04-15 16:48:00,
2013-04-15 12:53:00,71.0,49.2,29.92,SSW,195,7.6,10.1,46,0.00,,---,0.00,VWS V14.00,2013-04-15 16:53:00,
2013-04-15 12:59:00,70.4,49.2,29.92,South,183,8.7,12.3,47,0.00,,---,0.00,VWS V14.00,2013-04-15 16:59:00,
2013-04-15 13:04:00,69.9,49.9,29.92,SSW,205,11.0,11.0,49,0.00,,---,0.00,VWS V14.00,2013-04-15 17:04:00,
2013-04-15 13:09:00,69.3,49.9,29.92,SSW,195,5.8,11.0,50,0.00,,---,0.00,VWS V14.00,2013-04-15 17:09:00,
2013-04-15 13:15:00,69.2,50.3,29.92,South,191,9.6,11.0,51,0.00,,---,0.00,VWS V14.00,2013-04-15 17:15:00,
2013-04-15 13:20:00,68.8,50.5,29.92,SSE,164,4.5,5.8,52,0.00,,---,0.00,VWS V14.00,2013-04-15 17:20:00,
2013-04-15 13:21:00,68.8,51.0,29.92,SSW,198,9.6,10.1,53,0.00,,---,0.00,VWS V14.00,2013-04-15 17:21:00,
2013-04-15 13:23:00,68.8,50.5,29.92,South,182,4.0,10.1,52,0.00,,---,0.00,VWS V14.00,2013-04-15 17:23:00,
2013-04-15 13:24:00,68.8,50.5,29.92,South,176,6.3,10.1,52,0.00,,---,0.00,VWS V14.00,2013-04-15 17:24:00,
2013-04-15 13:29:00,69.2,50.3,29.92,SSW,199,5.8,10.5,51,0.00,,---,0.00,VWS V14.00,2013-04-15 17:29:00,
2013-04-15 13:34:00,69.3,50.5,29.92,SSW,198,8.3,10.1,51,0.00,,---,0.00,VWS V14.00,2013-04-15 17:34:00,
2013-04-15 13:38:00,69.2,50.8,29.92,SSW,202,7.6,10.5,52,0.00,,---,0.00,VWS V14.00,2013-04-15 17:38:00,
2013-04-15 13:43:00,68.6,51.3,29.92,South,169,8.1,8.7,54,0.00,,---,0.00,VWS V14.00,2013-04-15 17:43:00,
2013-04-15 13:48:00,68.1,51.8,29.92,SSW,204,9.6,11.0,56,0.00,,---,0.00,VWS V14.00,2013-04-15 17:48:00,
2013-04-15 13:54:00,67.9,52.6,29.92,SSW,205,8.3,10.1,58,0.00,,---,0.00,VWS V14.00,2013-04-15 17:54:00,
2013-04-15 13:59:00,68.1,52.8,29.89,SE,140,6.3,12.8,58,0.00,,---,0.00,VWS V14.00,2013-04-15 17:59:00,
2013-04-15 14:04:00,68.6,52.8,29.89,SSE,155,5.4,11.0,57,0.00,,---,0.00,VWS V14.00,2013-04-15 18:04:00,
2013-04-15 14:09:00,69.2,51.8,29.89,South,175,4.9,11.0,54,0.00,,---,0.00,VWS V14.00,2013-04-15 18:09:00,
2013-04-15 14:14:00,69.7,51.8,29.89,SE,146,8.3,10.5,53,0.00,,---,0.00,VWS V14.00,2013-04-15 18:14:00,
2013-04-15 14:19:00,70.1,51.1,29.89,South,184,8.1,11.0,51,0.00,,---,0.00,VWS V14.00,2013-04-15 18:19:00,
2013-04-15 14:25:00,70.2,50.8,29.89,SSW,196,4.0,10.5,50,0.00,,---,0.00,VWS V14.00,2013-04-15 18:25:00,
2013-04-15 14:29:00,70.6,51.1,29.89,SW,226,4.9,10.5,50,0.00,,---,0.00,VWS V14.00,2013-04-15 18:29:00,
2013-04-15 14:31:00,70.8,50.7,29.89,SSW,208,8.1,8.7,49,0.00,,---,0.00,VWS V14.00,2013-04-15 18:31:00,
2013-04-15 14:36:00,70.8,50.7,29.89,SSE,151,3.6,8.7,49,0.00,,---,0.00,VWS V14.00,2013-04-15 18:36:00,
2013-04-15 14:37:00,70.8,50.7,29.89,South,182,6.3,8.7,49,0.00,,---,0.00,VWS V14.00,2013-04-15 18:37:00,
2013-04-15 14:42:00,71.0,50.9,29.89,SSW,211,8.3,8.7,49,0.00,,---,0.00,VWS V14.00,2013-04-15 18:42:00,
2013-04-15 14:48:00,71.1,50.5,29.89,SSE,162,5.4,8.7,48,0.00,,---,0.00,VWS V14.00,2013-04-15 18:48:00,
2013-04-15 14:53:00,71.7,51.0,29.89,SSE,156,8.1,9.6,48,0.00,,---,0.00,VWS V14.00,2013-04-15 18:53:00,
2013-04-15 14:58:00,72.6,50.0,29.86,SE,143,10.1,10.5,45,0.00,,---,0.00,VWS V14.00,2013-04-15 18:58:00,
2013-04-15 15:03:00,73.1,49.9,29.86,SSW,205,8.3,10.1,44,0.00,,---,0.00,VWS V14.00,2013-04-15 19:03:00,
2013-04-15 15:08:00,73.7,50.4,29.86,SSW,203,7.6,10.1,44,0.00,,---,0.00,VWS V14.00,2013-04-15 19:08:00,
2013-04-15 15:13:00,74.4,49.8,29.89,SSW,193,8.3,8.3,42,0.00,,---,0.00,VWS V14.00,2013-04-15 19:13:00,
2013-04-15 15:19:00,75.3,50.6,29.89,South,185,5.4,8.3,42,0.00,,---,0.00,VWS V14.00,2013-04-15 19:19:00,
2013-04-15 15:24:00,75.8,50.5,29.89,SSW,209,6.3,8.7,41,0.00,,---,0.00,VWS V14.00,2013-04-15 19:24:00,
2013-04-15 15:29:00,76.2,50.1,29.89,SSW,200,7.6,10.1,40,0.00,,---,0.00,VWS V14.00,2013-04-15 19:29:00,
2013-04-15 15:35:00,76.9,50.8,29.89,SSW,203,4.9,10.1,40,0.00,,---,0.00,VWS V14.00,2013-04-15 19:35:00,
2013-04-15 15:40:00,77.4,49.9,29.89,South,191,6.3,8.1,38,0.00,,---,0.00,VWS V14.00,2013-04-15 19:40:00,
2013-04-15 15:47:00,77.1,48.8,29.86,SSE,162,8.3,11.0,37,0.00,,---,0.00,VWS V14.00,2013-04-15 19:47:00,
2013-04-15 15:52:00,76.9,47.9,29.86,SSW,209,7.2,11.4,36,0.00,,---,0.00,VWS V14.00,2013-04-15 19:52:00,
2013-04-15 15:57:00,77.3,49.7,29.86,SSW,195,3.6,11.4,38,0.00,,---,0.00,VWS V14.00,2013-04-15 19:57:00,
2013-04-15 15:59:00,77.4,49.2,29.86,SSE,160,8.7,11.4,37,0.00,,---,0.00,VWS V14.00,2013-04-15 19:59:00,
2013-04-15 16:02:00,77.4,49.2,29.86,South,188,6.3,12.3,37,0.00,,---,0.00,VWS V14.00,2013-04-15 20:02:00,
2013-04-15 16:03:00,77.4,49.2,29.86,SW,214,6.3,12.3,37,0.00,,---,0.00,VWS V14.00,2013-04-15 20:03:00,
2013-04-15 16:04:00,77.3,49.0,29.86,South,169,5.4,12.3,37,0.00,,---,0.00,VWS V14.00,2013-04-15 20:04:00,
2013-04-15 16:06:00,77.3,49.0,29.86,SW,219,8.3,12.3,37,0.00,,---,0.00,VWS V14.00,2013-04-15 20:06:00,
2013-04-15 16:10:00,76.9,48.7,29.86,South,186,6.3,12.3,37,0.00,,---,0.00,VWS V14.00,2013-04-15 20:10:00,
2013-04-15 16:16:00,77.1,49.5,29.86,SSW,212,8.3,12.3,38,0.00,,---,0.00,VWS V14.00,2013-04-15 20:16:00,
2013-04-15 16:21:00,77.6,50.0,29.86,South,177,5.8,6.7,38,0.00,,---,0.00,VWS V14.00,2013-04-15 20:21:00,
2013-04-15 16:26:00,78.0,49.6,29.86,SSW,211,8.3,10.1,37,0.00,,---,0.00,VWS V14.00,2013-04-15 20:26:00,
2013-04-15 16:32:00,78.0,50.3,29.86,SSE,162,4.9,8.7,38,0.00,,---,0.00,VWS V14.00,2013-04-15 20:32:00,
2013-04-15 16:37:00,77.8,49.5,29.86,SSW,206,5.4,12.3,37,0.00,,---,0.00,VWS V14.00,2013-04-15 20:37:00,
2013-04-15 16:42:00,77.8,50.2,29.86,South,187,7.6,8.1,38,0.00,,---,0.00,VWS V14.00,2013-04-15 20:42:00,
2013-04-15 16:47:00,77.8,50.9,29.86,SSW,202,5.8,10.1,39,0.00,,---,0.00,VWS V14.00,2013-04-15 20:47:00,
2013-04-15 16:52:00,78.2,51.9,29.86,SE,137,3.6,7.6,40,0.00,,---,0.00,VWS V14.00,2013-04-15 20:52:00,
2013-04-15 16:57:00,79.1,51.3,29.86,SSE,156,4.9,8.3,38,0.00,,---,0.00,VWS V14.00,2013-04-15 20:57:00,
2013-04-15 17:02:00,79.4,49.4,29.86,SE,125,5.4,8.7,35,0.00,,---,0.00,VWS V14.00,2013-04-15 21:02:00,
2013-04-15 17:07:00,78.5,49.4,29.86,SSW,211,5.8,11.0,36,0.00,,---,0.00,VWS V14.00,2013-04-15 21:07:00,
2013-04-15 17:12:00,78.3,50.7,29.83,SSW,198,5.4,10.5,38,0.00,,---,0.00,VWS V14.00,2013-04-15 21:12:00,
2013-04-15 17:18:00,78.7,51.0,29.83,SE,145,4.0,10.5,38,0.00,,---,0.00,VWS V14.00,2013-04-15 21:18:00,
2013-04-15 17:23:00,78.7,50.3,29.83,SSW,197,8.1,8.7,37,0.00,,---,0.00,VWS V14.00,2013-04-15 21:23:00,
2013-04-15 17:28:00,78.7,51.0,29.83,SSW,193,3.6,8.7,38,0.00,,---,0.00,VWS V14.00,2013-04-15 21:28:00,
2013-04-15 17:33:00,78.5,50.8,29.83,SSW,204,6.3,11.0,38,0.00,,---,0.00,VWS V14.00,2013-04-15 21:33:00,
2013-04-15 17:38:00,77.8,50.9,29.83,SW,227,7.6,11.4,39,0.00,,---,0.00,VWS V14.00,2013-04-15 21:38:00,
2013-04-15 17:43:00,77.8,50.9,29.83,SSW,207,8.1,11.0,39,0.00,,---,0.00,VWS V14.00,2013-04-15 21:43:00,
2013-04-15 17:49:00,78.0,51.7,29.83,South,190,4.9,11.0,40,0.00,,---,0.00,VWS V14.00,2013-04-15 21:49:00,
2013-04-15 17:54:00,78.2,50.5,29.83,SE,142,8.7,13.2,38,0.00,,---,0.00,VWS V14.00,2013-04-15 21:54:00,
2013-04-15 17:59:00,78.3,50.7,29.83,SSW,212,6.3,13.2,38,0.00,,---,0.00,VWS V14.00,2013-04-15 21:59:00,
2013-04-15 18:04:00,78.3,50.7,29.83,SSW,200,5.4,8.7,38,0.00,,---,0.00,VWS V14.00,2013-04-15 22:04:00,
2013-04-15 18:09:00,78.0,50.3,29.83,SSW,193,8.3,11.0,38,0.00,,---,0.00,VWS V14.00,2013-04-15 22:09:00,
2013-04-15 18:14:00,78.0,50.3,29.83,SSW,205,6.3,11.0,38,0.00,,---,0.00,VWS V14.00,2013-04-15 22:14:00,
2013-04-15 18:19:00,78.2,50.5,29.83,South,183,6.3,11.0,38,0.00,,---,0.00,VWS V14.00,2013-04-15 22:19:00,
2013-04-15 18:24:00,78.2,50.5,29.83,SSW,197,4.0,11.0,38,0.00,,---,0.00,VWS V14.00,2013-04-15 22:24:00,
2013-04-15 18:29:00,78.3,50.7,29.83,SW,227,8.3,12.3,38,0.00,,---,0.00,VWS V14.00,2013-04-15 22:29:00,
2013-04-15 18:35:00,78.3,51.4,29.83,South,177,8.3,10.1,39,0.00,,---,0.00,VWS V14.00,2013-04-15 22:35:00,
2013-04-15 18:40:00,78.5,52.2,29.83,SSW,194,8.7,10.1,40,0.00,,---,0.00,VWS V14.00,2013-04-15 22:40:00,
2013-04-15 18:45:00,78.5,52.2,29.83,SW,227,8.1,11.0,40,0.00,,---,0.00,VWS V14.00,2013-04-15 22:45:00,
2013-04-15 18:50:00,78.2,51.9,29.83,SSE,155,6.3,8.7,40,0.00,,---,0.00,VWS V14.00,2013-04-15 22:50:00,
2013-04-15 18:55:00,78.0,51.7,29.83,South,180,7.6,10.1,40,0.00,,---,0.00,VWS V14.00,2013-04-15 22:55:00,
2013-04-15 19:00:00,77.8,51.6,29.83,SSW,198,8.7,11.0,40,0.00,,---,0.00,VWS V14.00,2013-04-15 23:00:00,
2013-04-15 19:06:00,77.8,51.6,29.83,SSE,158,6.3,13.2,40,0.00,,---,0.00,VWS V14.00,2013-04-15 23:06:00,
2013-04-15 19:11:00,77.4,51.9,29.83,SSW,207,7.2,12.3,41,0.00,,---,0.00,VWS V14.00,2013-04-15 23:11:00,
2013-04-15 19:16:00,77.3,52.4,29.83,SW,231,7.6,12.3,42,0.00,,---,0.00,VWS V14.00,2013-04-15 23:16:00,
2013-04-15 19:21:00,77.1,52.2,29.83,SSW,212,5.4,7.6,42,0.00,,---,0.00,VWS V14.00,2013-04-15 23:21:00,
2013-04-15 19:27:00,77.3,52.4,29.83,SE,141,3.1,13.2,42,0.00,,---,0.00,VWS V14.00,2013-04-15 23:27:00,
2013-04-15 19:32:00,79.2,53.5,29.83,South,186,7.6,9.2,41,0.00,,---,0.00,VWS V14.00,2013-04-15 23:32:00,
2013-04-15 19:37:00,80.3,53.1,29.83,South,179,5.4,9.2,39,0.00,,---,0.00,VWS V14.00,2013-04-15 23:37:00,
2013-04-15 19:42:00,80.1,53.0,29.83,South,189,6.3,11.9,39,0.00,,---,0.00,VWS V14.00,2013-04-15 23:42:00,
2013-04-15 19:47:00,77.8,52.2,29.83,SSW,204,8.7,11.9,41,0.00,,---,0.00,VWS V14.00,2013-04-15 23:47:00,
2013-04-15 19:52:00,76.4,52.9,29.83,SSW,201,8.3,10.1,44,0.00,,---,0.00,VWS V14.00,2013-04-15 23:52:00,
2013-04-15 19:57:00,75.3,52.5,29.83,South,177,8.1,10.1,45,0.00,,---,0.00,VWS V14.00,2013-04-15 23:57:00,
2013-04-15 20:02:00,74.7,52.6,29.83,SSW,192,10.1,10.1,46,0.00,,---,0.00,VWS V14.00,2013-04-16 00:02:00,
2013-04-15 20:07:00,74.6,53.0,29.83,ESE,122,6.3,11.9,47,0.00,,---,0.00,VWS V14.00,2013-04-16 00:07:00,
2013-04-15 20:13:00,74.4,52.9,29.83,South,189,8.3,10.5,47,0.00,,---,0.00,VWS V14.00,2013-04-16 00:13:00,
2013-04-15 20:18:00,73.8,52.9,29.83,South,179,5.8,10.5,48,0.00,,---,0.00,VWS V14.00,2013-04-16 00:18:00,
2013-04-15 20:23:00,73.5,53.2,29.83,SSW,194,6.3,8.3,49,0.00,,---,0.00,VWS V14.00,2013-04-16 00:23:00,
2013-04-15 20:28:00,72.9,53.2,29.83,SSW,197,4.0,10.5,50,0.00,,---,0.00,VWS V14.00,2013-04-16 00:28:00,
2013-04-15 20:33:00,72.6,53.4,29.83,SSE,165,6.3,8.1,51,0.00,,---,0.00,VWS V14.00,2013-04-16 00:33:00,
2013-04-15 20:38:00,72.4,53.8,29.83,South,183,8.7,9.2,52,0.00,,---,0.00,VWS V14.00,2013-04-16 00:38:00,
2013-04-15 20:44:00,72.0,54.0,29.83,SW,216,5.8,6.3,53,0.00,,---,0.00,VWS V14.00,2013-04-16 00:44:00,
2013-04-15 20:49:00,71.7,54.2,29.83,SSE,155,4.5,6.3,54,0.00,,---,0.00,VWS V14.00,2013-04-16 00:49:00,
2013-04-15 20:54:00,71.3,54.3,29.83,South,175,3.6,5.4,55,0.00,,---,0.00,VWS V14.00,2013-04-16 00:54:00,
2013-04-15 20:59:00,71.0,54.5,29.83,SSE,159,5.4,5.8,56,0.00,,---,0.00,VWS V14.00,2013-04-16 00:59:00,
2013-04-15 21:04:00,70.6,55.1,29.83,SSW,194,2.7,5.8,58,0.00,,---,0.00,VWS V14.00,2013-04-16 01:04:00,
2013-04-15 21:09:00,70.4,55.4,29.83,SSW,203,4.9,6.7,59,0.00,,---,0.00,VWS V14.00,2013-04-16 01:09:00,
2013-04-15 21:14:00,70.2,55.7,29.83,SSW,212,5.4,5.8,60,0.00,,---,0.00,VWS V14.00,2013-04-16 01:14:00,
2013-04-15 21:19:00,70.1,55.1,29.83,South,190,3.1,6.3,59,0.00,,---,0.00,VWS V14.00,2013-04-16 01:19:00,
2013-04-15 21:24:00,69.9,55.4,29.83,South,190,6.3,6.3,60,0.00,,---,0.00,VWS V14.00,2013-04-16 01:24:00,
2013-04-15 21:30:00,69.9,55.4,29.86,SW,227,5.4,6.3,60,0.00,,---,0.00,VWS V14.00,2013-04-16 01:30:00,
2013-04-15 21:35:00,69.7,55.2,29.86,SSE,161,5.8,7.2,60,0.00,,---,0.00,VWS V14.00,2013-04-16 01:35:00,
2013-04-15 21:40:00,69.3,55.3,29.86,South,182,4.0,4.0,61,0.00,,---,0.00,VWS V14.00,2013-04-16 01:40:00,
2013-04-15 21:45:00,69.2,55.6,29.86,SSW,196,4.0,6.3,62,0.00,,---,0.00,VWS V14.00,2013-04-16 01:45:00,
2013-04-15 21:51:00,69.2,55.6,29.86,SSE,160,4.0,6.3,62,0.00,,---,0.00,VWS V14.00,2013-04-16 01:51:00,
2013-04-15 21:57:00,69.0,55.9,29.86,South,190,4.9,6.3,63,0.00,,---,0.00,VWS V14.00,2013-04-16 01:57:00,
2013-04-15 22:02:00,68.8,56.1,29.86,South,169,2.7,5.4,64,0.00,,---,0.00,VWS V14.00,2013-04-16 02:02:00,
2013-04-15 22:07:00,68.6,56.0,29.86,South,173,4.0,6.3,64,0.00,,---,0.00,VWS V14.00,2013-04-16 02:07:00,
2013-04-15 22:12:00,68.6,56.0,29.86,SSW,204,2.7,4.9,64,0.00,,---,0.00,VWS V14.00,2013-04-16 02:12:00,
2013-04-15 22:17:00,68.6,56.0,29.86,South,186,4.9,6.3,64,0.00,,---,0.00,VWS V14.00,2013-04-16 02:17:00,
2013-04-15 22:23:00,68.4,55.8,29.86,SSE,150,3.6,5.8,64,0.00,,---,0.00,VWS V14.00,2013-04-16 02:23:00,
2013-04-15 22:28:00,68.4,55.8,29.89,WSW,247,5.4,5.8,64,0.00,,---,0.00,VWS V14.00,2013-04-16 02:28:00,
2013-04-15 22:33:00,68.4,56.2,29.89,SSE,147,3.1,5.8,65,0.00,,---,0.00,VWS V14.00,2013-04-16 02:33:00,
2013-04-15 22:38:00,68.3,55.6,29.89,SSW,198,2.2,5.8,64,0.00,,---,0.00,VWS V14.00,2013-04-16 02:38:00,
2013-04-15 22:43:00,68.3,55.6,29.89,SSE,159,2.2,3.1,64,0.00,,---,0.47,VWS V14.00,2013-04-16 02:43:00,
2013-04-15 22:48:00,68.3,55.6,29.89,SE,131,2.2,3.1,64,0.00,,---,0.47,VWS V14.00,2013-04-16 02:48:00,
2013-04-15 22:53:00,67.9,55.7,29.89,SE,130,0.0,3.6,65,0.00,,---,0.47,VWS V14.00,2013-04-16 02:53:00,
2013-04-15 22:58:00,67.5,55.4,29.89,SE,133,0.0,4.5,65,0.00,,---,0.47,VWS V14.00,2013-04-16 02:58:00,
2013-04-15 23:04:00,67.4,56.0,29.89,SSE,150,0.0,0.0,67,0.00,,---,0.47,VWS V14.00,2013-04-16 03:04:00,
2013-04-15 23:09:00,67.0,56.5,29.89,SSE,150,0.0,0.0,69,0.00,,---,0.47,VWS V14.00,2013-04-16 03:09:00,
2013-04-15 23:14:00,67.0,57.3,29.89,East,101,0.0,0.0,71,0.00,,---,0.47,VWS V14.00,2013-04-16 03:14:00,
2013-04-15 23:19:00,66.6,57.3,29.89,NE,50,0.0,0.0,72,0.00,,---,0.47,VWS V14.00,2013-04-16 03:19:00,
2013-04-15 23:24:00,66.5,57.9,29.89,East,87,0.0,0.0,74,0.00,,---,0.47,VWS V14.00,2013-04-16 03:24:00,
2013-04-15 23:29:00,66.3,58.5,29.89,East,87,0.0,0.0,76,0.00,,---,0.47,VWS V14.00,2013-04-16 03:29:00,
2013-04-15 23:35:00,65.9,58.2,29.89,East,87,0.0,0.0,76,0.00,,---,0.47,VWS V14.00,2013-04-16 03:35:00,
2013-04-15 23:40:00,65.7,59.1,29.89,East,87,0.0,0.0,79,0.00,,---,0.47,VWS V14.00,2013-04-16 03:40:00,
2013-04-15 23:45:00,65.6,59.2,29.86,ESE,113,0.0,0.0,80,0.00,,---,0.47,VWS V14.00,2013-04-16 03:45:00,
2013-04-15 23:50:00,65.6,59.2,29.86,ESE,113,0.0,0.0,80,0.00,,---,0.47,VWS V14.00,2013-04-16 03:50:00,
2013-04-15 23:55:00,65.7,59.4,29.86,ESE,113,0.0,0.0,80,0.00,,---,0.47,VWS V14.00,2013-04-16 03:55:00,